createdAt,value
2019-01-14T00:00:06.195Z,8.40
2019-01-14T00:02:47.249Z,8.30
2019-01-14T00:05:20.140Z,8.30
2019-01-14T00:08:40.670Z,8.30
2019-01-14T00:11:12.060Z,8.10
2019-01-14T00:13:57.298Z,8.00
2019-01-14T00:16:33.731Z,8.10
2019-01-14T00:19:25.230Z,8.10
2019-01-14T00:25:19.606Z,8.10
2019-01-14T00:27:57.470Z,8.10
2019-01-14T00:31:04.947Z,8.00
2019-01-14T00:36:39.109Z,7.90
2019-01-14T00:39:41.351Z,7.80
2019-01-14T00:42:38.129Z,7.40
2019-01-14T00:45:12.064Z,7.80
2019-01-14T00:47:47.359Z,7.50
2019-01-14T00:50:40.398Z,7.40
2019-01-14T00:53:10.607Z,7.30
2019-01-14T00:55:58.720Z,7.10
2019-01-14T00:58:29.973Z,7.10
2019-01-14T01:01:07.587Z,7.00
2019-01-14T01:03:37.826Z,7.20
2019-01-14T01:06:16.644Z,7.20
2019-01-14T01:08:50.178Z,7.30
2019-01-14T01:11:20.220Z,7.20
2019-01-14T01:13:51.380Z,7.00
2019-01-14T01:16:38.226Z,7.40
2019-01-14T01:19:08.397Z,7.40
2019-01-14T01:21:38.829Z,7.20
2019-01-14T01:24:16.398Z,7.10
2019-01-14T01:26:51.359Z,7.00
2019-01-14T01:29:39.094Z,6.80
2019-01-14T01:32:09.422Z,6.60
2019-01-14T01:34:44.543Z,6.60
2019-01-14T01:37:17.100Z,6.40
2019-01-14T01:39:50.149Z,6.40
2019-01-14T01:42:27.417Z,6.50
2019-01-14T01:44:57.699Z,6.70
2019-01-14T01:47:54.845Z,6.70
2019-01-14T01:50:25.016Z,6.80
2019-01-14T01:53:18.736Z,7.10
2019-01-14T01:55:48.503Z,6.90
2019-01-14T01:58:23.353Z,6.80
2019-01-14T02:00:53.550Z,7.00
2019-01-14T02:03:23.573Z,7.00
2019-01-14T02:06:19.066Z,6.80
2019-01-14T02:08:47.177Z,7.10
2019-01-14T02:11:29.532Z,7.10
2019-01-14T02:14:04.378Z,7.00
2019-01-14T02:16:41.166Z,6.80
2019-01-14T02:19:16.548Z,6.60
2019-01-14T02:21:51.204Z,6.80
2019-01-14T02:24:28.709Z,6.90
2019-01-14T02:27:14.935Z,7.10
2019-01-14T02:29:50.159Z,7.20
2019-01-14T02:32:38.897Z,7.40
2019-01-14T02:35:58.333Z,7.30
2019-01-14T02:38:34.026Z,7.20
2019-01-14T02:41:02.867Z,6.90
2019-01-14T02:43:47.842Z,7.20
2019-01-14T02:46:35.537Z,7.30
2019-01-14T02:49:36.988Z,7.30
2019-01-14T02:52:05.195Z,7.30
2019-01-14T02:54:48.544Z,7.00
2019-01-14T02:57:30.572Z,6.70
2019-01-14T03:00:37.733Z,6.60
2019-01-14T03:03:20.484Z,6.70
2019-01-14T03:05:47.735Z,6.50
2019-01-14T03:08:42.436Z,6.90
2019-01-14T03:11:12.511Z,6.60
2019-01-14T03:14:12.057Z,6.40
2019-01-14T03:17:29.577Z,6.40
2019-01-14T03:19:42.662Z,6.20
2019-01-14T03:22:39.922Z,6.40
2019-01-14T03:25:18.644Z,6.60
2019-01-14T03:27:48.670Z,6.60
2019-01-14T03:30:31.192Z,6.50
2019-01-14T03:33:01.265Z,6.30
2019-01-14T03:35:59.516Z,6.20
2019-01-14T03:38:52.272Z,6.20
2019-01-14T03:41:30.015Z,6.10
2019-01-14T03:44:10.426Z,6.50
2019-01-14T03:46:47.919Z,6.60
2019-01-14T03:49:21.631Z,6.40
2019-01-14T03:52:02.340Z,6.70
2019-01-14T03:54:34.832Z,6.70
2019-01-14T03:57:05.411Z,6.60
2019-01-14T04:00:10.385Z,6.60
2019-01-14T04:02:42.266Z,6.60
2019-01-14T04:05:22.876Z,6.50
2019-01-14T04:08:23.522Z,6.60
2019-01-14T04:11:02.445Z,6.50
2019-01-14T04:14:01.909Z,6.40
2019-01-14T04:16:27.365Z,6.20
2019-01-14T04:18:57.485Z,6.10
2019-01-14T04:24:38.435Z,6.40
2019-01-14T04:27:50.516Z,6.40
2019-01-14T04:33:04.363Z,6.60
2019-01-14T04:35:40.228Z,6.40
2019-01-14T04:41:18.672Z,6.50
2019-01-14T04:43:51.469Z,6.70
2019-01-14T04:46:21.521Z,6.60
2019-01-14T04:49:03.285Z,6.50
2019-01-14T04:51:33.404Z,6.40
2019-01-14T04:54:03.523Z,6.30
2019-01-14T04:56:42.677Z,6.30
2019-01-14T04:59:15.817Z,6.30
2019-01-14T05:01:52.810Z,6.50
2019-01-14T05:04:30.359Z,6.30
2019-01-14T05:08:06.004Z,6.40
2019-01-14T05:09:51.730Z,6.40
2019-01-14T05:12:33.484Z,6.20
2019-01-14T05:15:03.642Z,6.20
2019-01-14T05:17:42.738Z,6.00
2019-01-14T05:20:54.026Z,5.90
2019-01-14T05:23:35.666Z,5.80
2019-01-14T05:26:17.779Z,6.10
2019-01-14T05:29:09.259Z,5.80
2019-01-14T05:31:53.276Z,6.20
2019-01-14T05:34:25.798Z,5.80
2019-01-14T05:36:58.958Z,6.00
2019-01-14T05:39:29.011Z,5.90
2019-01-14T05:45:40.550Z,5.60
2019-01-14T05:48:18.588Z,5.60
2019-01-14T05:50:48.036Z,5.50
2019-01-14T05:53:20.758Z,5.70
2019-01-14T05:55:54.168Z,5.90
2019-01-14T06:00:37.869Z,6.00
2019-01-14T06:01:25.598Z,6.40
2019-01-14T06:04:16.675Z,6.60
2019-01-14T06:06:51.193Z,6.40
2019-01-14T06:09:44.850Z,6.60
2019-01-14T06:12:26.974Z,6.50
2019-01-14T06:15:03.363Z,6.40
2019-01-14T06:17:41.600Z,6.30
2019-01-14T06:20:23.436Z,6.40
2019-01-14T06:22:56.577Z,6.60
2019-01-14T06:25:35.608Z,6.50
2019-01-14T06:28:42.240Z,6.70
2019-01-14T06:31:24.244Z,6.70
2019-01-14T06:34:30.939Z,6.70
2019-01-14T06:37:36.327Z,6.60
2019-01-14T06:40:35.156Z,6.50
2019-01-14T06:43:15.111Z,6.40
2019-01-14T06:46:20.538Z,6.20
2019-01-14T06:49:35.325Z,6.10
2019-01-14T06:52:28.038Z,6.10
2019-01-14T06:55:12.938Z,6.20
2019-01-14T06:57:57.625Z,6.20
2019-01-14T07:03:43.027Z,6.30
2019-01-14T07:07:05.647Z,6.30
2019-01-14T07:09:23.249Z,6.50
2019-01-14T07:14:47.565Z,6.20
2019-01-14T07:17:36.000Z,6.30
2019-01-14T07:20:12.368Z,6.40
2019-01-14T07:26:53.062Z,6.40
2019-01-14T07:29:18.605Z,6.20
2019-01-14T07:35:35.594Z,6.10
2019-01-14T07:38:18.474Z,6.10
2019-01-14T07:44:02.341Z,6.30
2019-01-14T07:46:36.945Z,6.30
2019-01-14T07:49:28.170Z,6.30
2019-01-14T07:52:10.981Z,6.40
2019-01-14T07:55:08.865Z,6.50
2019-01-14T07:57:57.302Z,6.50
2019-01-14T08:00:50.079Z,6.70
2019-01-14T08:06:57.795Z,6.60
2019-01-14T08:07:30.720Z,6.60
2019-01-14T08:09:37.515Z,6.50
2019-01-14T08:12:32.107Z,6.50
2019-01-14T08:15:21.768Z,6.40
2019-01-14T08:17:55.160Z,6.20
2019-01-14T08:20:48.957Z,6.10
2019-01-14T08:23:34.494Z,6.10
2019-01-14T08:26:06.726Z,6.20
2019-01-14T08:28:41.856Z,6.30
2019-01-14T08:31:33.984Z,6.40
2019-01-14T08:34:33.195Z,6.40
2019-01-14T08:37:08.463Z,6.50
2019-01-14T08:39:38.275Z,6.50
2019-01-14T08:42:21.463Z,6.70
2019-01-14T08:45:07.564Z,6.80
2019-01-14T08:47:41.106Z,6.90
2019-01-14T08:50:19.273Z,6.80
2019-01-14T08:52:49.278Z,6.80
2019-01-14T08:55:29.765Z,6.80
2019-01-14T08:58:16.120Z,6.80
2019-01-14T09:00:52.443Z,6.80
2019-01-14T09:03:28.282Z,6.80
2019-01-14T09:06:02.905Z,6.80
2019-01-14T09:08:52.566Z,6.80
2019-01-14T09:11:28.037Z,6.80
2019-01-14T09:14:05.032Z,6.90
2019-01-14T09:16:58.929Z,6.90
2019-01-14T09:19:57.103Z,6.80
2019-01-14T09:22:29.352Z,6.80
2019-01-14T09:24:59.450Z,6.80
2019-01-14T09:27:33.972Z,6.70
2019-01-14T09:30:13.313Z,6.80
2019-01-14T09:32:46.204Z,6.70
2019-01-14T09:35:35.622Z,6.80
2019-01-14T09:38:00.669Z,6.80
2019-01-14T09:40:31.098Z,7.00
2019-01-14T09:43:19.132Z,7.00
2019-01-14T09:45:43.313Z,7.20
2019-01-14T09:48:15.593Z,7.30
2019-01-14T09:50:51.537Z,7.20
2019-01-14T09:53:39.071Z,7.30
2019-01-14T09:55:55.062Z,7.30
2019-01-14T09:58:33.355Z,7.50
2019-01-14T10:01:14.252Z,7.50
2019-01-14T10:03:56.346Z,7.50
2019-01-14T10:06:40.577Z,7.50
2019-01-14T10:09:10.715Z,7.50
2019-01-14T10:11:57.838Z,7.50
2019-01-14T10:14:48.555Z,7.50
2019-01-14T10:17:13.124Z,7.50
2019-01-14T10:20:00.231Z,7.60
2019-01-14T10:24:00.180Z,7.50
2019-01-14T10:25:20.982Z,7.30
2019-01-14T10:28:08.706Z,7.40
2019-01-14T10:30:45.793Z,7.50
2019-01-14T10:33:25.450Z,7.90
2019-01-14T10:36:21.139Z,8.10
2019-01-14T10:39:34.295Z,8.00
2019-01-14T10:45:00.953Z,8.00
2019-01-14T10:47:43.705Z,7.90
2019-01-14T10:50:14.204Z,7.90
2019-01-14T10:52:46.849Z,7.90
2019-01-14T10:55:43.905Z,7.90
2019-01-14T10:57:53.159Z,8.00
2019-01-14T11:00:51.220Z,8.00
2019-01-14T11:03:07.369Z,8.00
2019-01-14T11:05:47.264Z,8.00
2019-01-14T11:08:35.505Z,7.90
2019-01-14T11:11:25.889Z,8.00
2019-01-14T11:13:57.031Z,8.00
2019-01-14T11:16:59.354Z,8.00
2019-01-14T11:19:46.648Z,8.20
2019-01-14T11:22:25.931Z,8.50
2019-01-14T11:24:55.793Z,8.40
2019-01-14T11:27:39.538Z,8.40
2019-01-14T11:30:30.487Z,8.40
2019-01-14T11:33:03.626Z,8.40
2019-01-14T11:35:47.578Z,8.30
2019-01-14T11:38:36.948Z,8.30
2019-01-14T11:41:26.339Z,8.40
2019-01-14T11:43:56.325Z,8.30
2019-01-14T11:46:34.026Z,8.60
2019-01-14T11:49:31.140Z,8.60
2019-01-14T11:51:48.217Z,8.60
2019-01-14T11:55:11.925Z,8.60
2019-01-14T11:56:57.149Z,8.60
2019-01-14T11:59:43.358Z,8.70
2019-01-14T12:02:29.645Z,8.70
2019-01-14T12:05:23.993Z,8.80
2019-01-14T12:07:49.137Z,8.90
2019-01-14T12:13:01.657Z,8.90
2019-01-14T12:15:49.327Z,9.00
2019-01-14T12:18:12.149Z,9.00
2019-01-14T12:20:53.624Z,9.10
2019-01-14T12:26:35.446Z,8.90
2019-01-14T12:29:05.442Z,8.90
2019-01-14T12:31:43.268Z,8.90
2019-01-14T12:37:03.863Z,8.90
2019-01-14T12:39:33.836Z,8.90
2019-01-14T12:42:26.955Z,8.90
2019-01-14T12:45:14.806Z,8.90
2019-01-14T12:53:33.086Z,8.80
2019-01-14T12:59:22.799Z,8.80
2019-01-14T13:01:42.573Z,8.80
2019-01-14T13:04:13.894Z,9.00
2019-01-14T13:06:50.218Z,9.00
2019-01-14T13:09:26.732Z,9.00
2019-01-14T13:15:16.038Z,9.20
2019-01-14T13:18:19.551Z,9.10
2019-01-14T13:20:50.312Z,9.10
2019-01-14T13:23:42.129Z,9.10
2019-01-14T13:26:40.010Z,9.10
2019-01-14T13:29:28.935Z,9.20
2019-01-14T13:32:10.553Z,9.10
2019-01-14T13:34:56.650Z,9.10
2019-01-14T13:37:50.517Z,9.10
2019-01-14T13:40:48.346Z,9.00
2019-01-14T13:43:25.953Z,9.00
2019-01-14T13:46:32.353Z,9.00
2019-01-14T13:50:06.667Z,9.00
2019-01-14T13:57:41.386Z,8.80
2019-01-14T14:00:17.799Z,8.70
2019-01-14T14:03:03.909Z,8.70
2019-01-14T14:06:20.380Z,8.70
2019-01-14T14:08:31.786Z,8.80
2019-01-14T14:12:28.092Z,8.90
2019-01-14T14:13:24.696Z,8.90
2019-01-14T14:16:08.207Z,8.90
2019-01-14T14:19:05.075Z,8.80
2019-01-14T14:21:48.449Z,8.80
2019-01-14T14:25:02.114Z,8.80
2019-01-14T14:27:35.896Z,8.70
2019-01-14T14:30:23.419Z,8.70
2019-01-14T14:33:04.087Z,8.70
2019-01-14T14:35:34.437Z,8.60
2019-01-14T14:38:27.091Z,8.70
2019-01-14T14:41:19.876Z,8.70
2019-01-14T14:46:24.995Z,8.70
2019-01-14T14:51:37.153Z,8.70
2019-01-14T14:54:28.809Z,8.60
2019-01-14T14:57:24.109Z,8.60
2019-01-14T15:00:03.884Z,8.60
2019-01-14T15:02:53.340Z,8.60
2019-01-14T15:05:25.157Z,8.60
2019-01-14T15:07:55.282Z,8.60
2019-01-14T15:10:45.578Z,8.60
2019-01-14T15:13:57.011Z,8.60
2019-01-14T15:26:22.792Z,8.40
2019-01-14T15:28:49.746Z,8.30
2019-01-14T15:31:19.726Z,8.40
2019-01-14T15:34:03.760Z,8.30
2019-01-14T15:36:49.901Z,8.30
2019-01-14T15:39:29.326Z,8.30
2019-01-14T15:42:17.637Z,8.30
2019-01-14T15:45:11.725Z,8.30
2019-01-14T15:47:46.851Z,8.30
2019-01-14T15:53:53.490Z,8.30
2019-01-14T15:56:35.968Z,8.40
2019-01-14T15:57:33.306Z,8.30
2019-01-14T15:59:20.906Z,8.30
2019-01-14T16:01:54.683Z,8.30
2019-01-14T16:04:31.729Z,8.20
2019-01-14T16:07:08.194Z,8.10
2019-01-14T16:09:37.929Z,8.10
2019-01-14T16:15:12.396Z,7.90
2019-01-14T16:18:08.015Z,8.00
2019-01-14T16:24:23.061Z,7.90
2019-01-14T16:27:28.361Z,7.90
2019-01-14T16:30:51.700Z,7.80
2019-01-14T16:33:42.309Z,7.80
2019-01-14T16:36:17.186Z,7.80
2019-01-14T16:38:54.117Z,7.80
2019-01-14T16:42:03.565Z,7.80
2019-01-14T16:44:49.923Z,7.70
2019-01-14T16:47:09.850Z,7.60
2019-01-14T16:49:54.570Z,7.50
2019-01-14T16:52:24.731Z,7.50
2019-01-14T16:56:34.503Z,7.40
2019-01-14T16:58:11.709Z,7.40
2019-01-14T17:00:43.591Z,7.30
2019-01-14T17:03:52.334Z,7.20
2019-01-14T17:06:57.664Z,7.10
2019-01-14T17:09:40.174Z,7.00
2019-01-14T17:12:37.989Z,7.00
2019-01-14T17:15:31.476Z,6.90
2019-01-14T17:20:38.138Z,6.90
2019-01-14T17:23:32.219Z,6.90
2019-01-14T17:26:18.310Z,6.90
2019-01-14T17:29:58.742Z,7.00
2019-01-14T17:35:48.966Z,6.80
2019-01-14T17:38:43.905Z,6.80
2019-01-14T17:41:21.352Z,6.80
2019-01-14T17:44:13.026Z,6.80
2019-01-14T17:47:15.760Z,6.80
2019-01-14T17:49:46.926Z,6.80
2019-01-14T17:52:18.221Z,6.70
2019-01-14T17:54:54.401Z,6.70
2019-01-14T17:57:31.388Z,6.70
2019-01-14T18:00:33.717Z,6.90
2019-01-14T18:03:13.877Z,6.90
2019-01-14T18:06:05.293Z,6.80
2019-01-14T18:08:43.400Z,6.80
2019-01-14T18:11:46.861Z,6.80
2019-01-14T18:14:02.179Z,6.80
2019-01-14T18:16:56.268Z,6.90
2019-01-14T18:19:45.322Z,6.90
2019-01-14T18:22:17.090Z,6.90
2019-01-14T18:24:49.760Z,6.90
2019-01-14T18:27:19.880Z,6.90
2019-01-14T18:34:14.692Z,6.80
2019-01-14T18:36:26.952Z,6.80
2019-01-14T18:39:40.149Z,6.80
2019-01-14T18:42:28.780Z,6.80
2019-01-14T18:45:09.720Z,6.70
2019-01-14T18:47:55.749Z,6.70
2019-01-14T18:50:38.424Z,6.70
2019-01-14T18:53:23.135Z,6.70
2019-01-14T18:56:14.963Z,6.60
2019-01-14T18:59:37.672Z,6.50
2019-01-14T19:02:07.944Z,6.60
2019-01-14T19:05:04.386Z,6.60
2019-01-14T19:08:08.335Z,6.70
2019-01-14T19:13:59.732Z,6.90
2019-01-14T19:20:06.484Z,6.80
2019-01-14T19:26:49.684Z,6.60
2019-01-14T19:29:11.562Z,6.50
2019-01-14T19:31:38.873Z,6.50
2019-01-14T19:34:18.210Z,6.30
2019-01-14T19:36:49.453Z,6.30
2019-01-14T19:39:30.530Z,6.30
2019-01-14T19:45:20.960Z,6.20
2019-01-14T19:47:55.286Z,6.20
2019-01-14T19:50:28.385Z,6.20
2019-01-14T19:53:22.578Z,6.20
2019-01-14T19:57:25.103Z,6.20
2019-01-14T19:59:58.397Z,6.20
2019-01-14T20:01:29.243Z,6.20
2019-01-14T20:04:07.924Z,6.30
2019-01-14T20:07:16.000Z,6.10
2019-01-14T20:09:48.561Z,6.20
2019-01-14T20:12:30.548Z,6.00
2019-01-14T20:15:06.868Z,6.00
2019-01-14T20:18:02.025Z,5.80
2019-01-14T20:20:40.324Z,5.80
2019-01-14T20:23:52.169Z,5.70
2019-01-14T20:26:17.943Z,5.70
2019-01-14T20:29:42.133Z,5.50
2019-01-14T20:32:10.315Z,5.50
2019-01-14T20:34:51.189Z,5.40
2019-01-14T20:37:30.872Z,5.20
2019-01-14T20:43:26.708Z,5.00
2019-01-14T20:46:06.583Z,4.80
2019-01-14T20:48:45.386Z,4.80
2019-01-14T20:51:20.537Z,4.50
2019-01-14T20:54:26.799Z,4.40
2019-01-14T20:56:50.646Z,4.50
2019-01-14T20:59:38.472Z,4.30
2019-01-14T21:02:08.103Z,4.40
2019-01-14T21:05:20.126Z,4.30
2019-01-14T21:07:55.236Z,4.20
2019-01-14T21:10:43.555Z,4.10
2019-01-14T21:13:24.760Z,4.40
2019-01-14T21:16:02.809Z,4.30
2019-01-14T21:19:04.337Z,4.10
2019-01-14T21:25:10.529Z,3.90
2019-01-14T21:27:32.161Z,4.00
2019-01-14T21:30:06.576Z,4.30
2019-01-14T21:35:41.223Z,4.10
2019-01-14T21:38:15.544Z,3.80
2019-01-14T21:40:49.543Z,3.70
2019-01-14T21:43:26.826Z,3.50
2019-01-14T21:46:07.276Z,3.60
2019-01-14T21:48:37.522Z,3.60
2019-01-14T21:51:35.378Z,3.80
2019-01-14T21:58:04.100Z,3.50
2019-01-14T22:00:55.631Z,3.50
2019-01-14T22:07:27.981Z,3.30
2019-01-14T22:09:26.083Z,3.10
2019-01-14T22:12:47.188Z,2.90
2019-01-14T22:14:54.791Z,3.00
2019-01-14T22:17:29.512Z,3.00
2019-01-14T22:20:04.072Z,3.00
2019-01-14T22:22:50.533Z,3.20
2019-01-14T22:25:31.278Z,3.20
2019-01-14T22:31:27.080Z,3.20
2019-01-14T22:34:23.520Z,3.10
2019-01-14T22:37:09.896Z,3.10
2019-01-14T22:42:21.679Z,3.00
2019-01-14T22:45:00.934Z,2.90
2019-01-14T22:48:05.456Z,2.80
2019-01-14T22:50:09.564Z,2.70
2019-01-14T22:53:10.709Z,2.60
2019-01-14T22:55:22.292Z,2.70
2019-01-14T22:57:54.060Z,2.50
2019-01-14T23:04:13.463Z,2.70
2019-01-14T23:10:22.219Z,2.50
2019-01-14T23:13:26.023Z,2.40
2019-01-14T23:15:41.374Z,2.40
2019-01-14T23:18:51.960Z,2.20
2019-01-14T23:21:42.388Z,2.30
2019-01-14T23:26:51.552Z,1.90
2019-01-14T23:29:30.433Z,1.90
2019-01-14T23:32:07.092Z,2.30
2019-01-14T23:34:48.174Z,2.10
2019-01-14T23:37:13.179Z,1.90
2019-01-14T23:39:53.355Z,2.00
2019-01-14T23:42:23.404Z,1.90
2019-01-14T23:45:05.588Z,1.80
2019-01-14T23:48:13.372Z,1.80
2019-01-14T23:53:56.310Z,1.70
2019-01-14T23:56:43.988Z,1.60
2019-01-14T23:59:24.388Z,1.60
